sensor_id;sensor_type;location;lat;lon;timestamp;P1;durP1;ratioP1;P2;durP2;ratioP2
32329;SDS011;18807;52.434;13.238;2022-12-07T00:05:16;14.07;;;6.85;;
32329;SDS011;18807;52.434;13.238;2022-12-07T00:12:52;14.25;;;7.40;;
32329;SDS011;18807;52.434;13.238;2022-12-07T00:20:25;13.45;;;6.53;;
32329;SDS011;18807;52.434;13.238;2022-12-07T00:28:01;11.88;;;6.50;;
32329;SDS011;18807;52.434;13.238;2022-12-07T00:35:35;10.05;;;5.63;;
32329;SDS011;18807;52.434;13.238;2022-12-07T00:43:10;11.83;;;5.80;;
32329;SDS011;18807;52.434;13.238;2022-12-07T00:50:44;11.77;;;6.53;;
32329;SDS011;18807;52.434;13.238;2022-12-07T00:58:19;9.07;;;5.00;;
32329;SDS011;18807;52.434;13.238;2022-12-07T01:05:53;6.60;;;3.60;;
32329;SDS011;18807;52.434;13.238;2022-12-07T01:13:30;7.70;;;4.50;;
32329;SDS011;18807;52.434;13.238;2022-12-07T01:21:06;7.80;;;4.43;;
32329;SDS011;18807;52.434;13.238;2022-12-07T01:28:42;7.60;;;4.22;;
32329;SDS011;18807;52.434;13.238;2022-12-07T01:36:17;5.97;;;3.35;;
32329;SDS011;18807;52.434;13.238;2022-12-07T01:44:10;8.23;;;4.28;;
32329;SDS011;18807;52.434;13.238;2022-12-07T01:51:49;7.30;;;4.55;;
32329;SDS011;18807;52.434;13.238;2022-12-07T01:59:30;7.28;;;3.97;;
32329;SDS011;18807;52.434;13.238;2022-12-07T02:07:04;9.18;;;4.25;;
32329;SDS011;18807;52.434;13.238;2022-12-07T02:14:40;8.32;;;4.75;;
32329;SDS011;18807;52.434;13.238;2022-12-07T02:22:18;6.45;;;4.05;;
32329;SDS011;18807;52.434;13.238;2022-12-07T02:30:08;8.20;;;4.82;;
32329;SDS011;18807;52.434;13.238;2022-12-07T02:37:47;8.38;;;4.03;;
32329;SDS011;18807;52.434;13.238;2022-12-07T02:45:31;8.25;;;4.95;;
32329;SDS011;18807;52.434;13.238;2022-12-07T03:01:08;7.95;;;4.18;;
32329;SDS011;18807;52.434;13.238;2022-12-07T03:08:57;10.73;;;5.07;;
32329;SDS011;18807;52.434;13.238;2022-12-07T03:16:43;8.20;;;4.40;;
32329;SDS011;18807;52.434;13.238;2022-12-07T03:24:24;8.35;;;4.63;;
32329;SDS011;18807;52.434;13.238;2022-12-07T03:32:03;9.80;;;5.47;;
32329;SDS011;18807;52.434;13.238;2022-12-07T03:39:44;12.85;;;5.47;;
32329;SDS011;18807;52.434;13.238;2022-12-07T03:47:25;11.25;;;5.65;;
32329;SDS011;18807;52.434;13.238;2022-12-07T03:55:04;10.15;;;5.72;;
32329;SDS011;18807;52.434;13.238;2022-12-07T04:02:44;11.75;;;6.03;;
32329;SDS011;18807;52.434;13.238;2022-12-07T04:10:19;13.02;;;6.35;;
32329;SDS011;18807;52.434;13.238;2022-12-07T04:25:28;14.90;;;7.05;;
32329;SDS011;18807;52.434;13.238;2022-12-07T04:33:04;14.35;;;6.93;;
32329;SDS011;18807;52.434;13.238;2022-12-07T04:40:37;18.00;;;8.50;;
32329;SDS011;18807;52.434;13.238;2022-12-07T04:48:13;18.00;;;8.73;;
32329;SDS011;18807;52.434;13.238;2022-12-07T04:55:47;24.52;;;10.90;;
32329;SDS011;18807;52.434;13.238;2022-12-07T05:03:22;20.92;;;10.73;;
32329;SDS011;18807;52.434;13.238;2022-12-07T05:10:56;26.05;;;11.07;;
32329;SDS011;18807;52.434;13.238;2022-12-07T05:18:32;26.13;;;11.77;;
32329;SDS011;18807;52.434;13.238;2022-12-07T05:26:05;29.10;;;13.02;;
32329;SDS011;18807;52.434;13.238;2022-12-07T05:33:41;30.50;;;12.93;;
32329;SDS011;18807;52.434;13.238;2022-12-07T05:41:15;31.67;;;12.98;;
32329;SDS011;18807;52.434;13.238;2022-12-07T05:49:09;36.63;;;13.30;;
32329;SDS011;18807;52.434;13.238;2022-12-07T05:56:43;31.42;;;13.82;;
32329;SDS011;18807;52.434;13.238;2022-12-07T06:04:18;34.53;;;14.10;;
32329;SDS011;18807;52.434;13.238;2022-12-07T06:11:53;33.80;;;14.60;;
32329;SDS011;18807;52.434;13.238;2022-12-07T06:19:46;31.13;;;13.23;;
32329;SDS011;18807;52.434;13.238;2022-12-07T06:27:22;30.58;;;14.30;;
32329;SDS011;18807;52.434;13.238;2022-12-07T06:34:58;36.17;;;17.50;;
32329;SDS011;18807;52.434;13.238;2022-12-07T06:42:33;35.85;;;15.32;;
32329;SDS011;18807;52.434;13.238;2022-12-07T06:50:08;36.75;;;15.40;;
32329;SDS011;18807;52.434;13.238;2022-12-07T06:57:43;31.77;;;14.20;;
32329;SDS011;18807;52.434;13.238;2022-12-07T07:05:18;33.30;;;16.13;;
32329;SDS011;18807;52.434;13.238;2022-12-07T07:12:54;30.95;;;14.50;;
32329;SDS011;18807;52.434;13.238;2022-12-07T07:20:30;28.25;;;12.60;;
32329;SDS011;18807;52.434;13.238;2022-12-07T07:28:04;32.45;;;13.95;;
32329;SDS011;18807;52.434;13.238;2022-12-07T07:35:39;36.20;;;14.15;;
32329;SDS011;18807;52.434;13.238;2022-12-07T07:43:13;37.33;;;14.25;;
32329;SDS011;18807;52.434;13.238;2022-12-07T07:50:48;30.67;;;14.53;;
32329;SDS011;18807;52.434;13.238;2022-12-07T07:58:22;24.70;;;9.95;;
32329;SDS011;18807;52.434;13.238;2022-12-07T08:05:58;24.23;;;10.83;;
32329;SDS011;18807;52.434;13.238;2022-12-07T08:13:31;20.85;;;9.52;;
32329;SDS011;18807;52.434;13.238;2022-12-07T08:21:11;15.57;;;8.35;;
32329;SDS011;18807;52.434;13.238;2022-12-07T08:28:48;16.25;;;6.35;;
32329;SDS011;18807;52.434;13.238;2022-12-07T08:36:23;14.60;;;6.47;;
32329;SDS011;18807;52.434;13.238;2022-12-07T08:43:57;11.80;;;5.80;;
32329;SDS011;18807;52.434;13.238;2022-12-07T08:51:33;8.02;;;4.05;;
32329;SDS011;18807;52.434;13.238;2022-12-07T08:59:07;5.80;;;3.92;;
32329;SDS011;18807;52.434;13.238;2022-12-07T09:06:44;4.97;;;2.78;;
32329;SDS011;18807;52.434;13.238;2022-12-07T09:14:18;2.78;;;1.98;;
32329;SDS011;18807;52.434;13.238;2022-12-07T09:21:53;5.65;;;2.38;;
32329;SDS011;18807;52.434;13.238;2022-12-07T09:29:28;4.13;;;2.35;;
32329;SDS011;18807;52.434;13.238;2022-12-07T09:37:03;4.30;;;2.95;;
32329;SDS011;18807;52.434;13.238;2022-12-07T09:44:39;3.45;;;2.40;;
32329;SDS011;18807;52.434;13.238;2022-12-07T09:52:19;4.07;;;1.95;;
32329;SDS011;18807;52.434;13.238;2022-12-07T10:00:00;3.97;;;1.80;;
32329;SDS011;18807;52.434;13.238;2022-12-07T10:07:39;3.97;;;1.75;;
32329;SDS011;18807;52.434;13.238;2022-12-07T10:15:13;3.55;;;1.90;;
32329;SDS011;18807;52.434;13.238;2022-12-07T10:22:56;3.20;;;2.08;;
32329;SDS011;18807;52.434;13.238;2022-12-07T10:30:32;6.95;;;2.50;;
32329;SDS011;18807;52.434;13.238;2022-12-07T10:38:08;4.88;;;2.35;;
32329;SDS011;18807;52.434;13.238;2022-12-07T10:46:02;5.60;;;3.50;;
32329;SDS011;18807;52.434;13.238;2022-12-07T10:53:56;4.95;;;3.58;;
32329;SDS011;18807;52.434;13.238;2022-12-07T11:01:41;5.60;;;3.55;;
32329;SDS011;18807;52.434;13.238;2022-12-07T11:09:29;8.77;;;4.90;;
32329;SDS011;18807;52.434;13.238;2022-12-07T11:17:42;6.75;;;3.60;;
32329;SDS011;18807;52.434;13.238;2022-12-07T11:25:25;5.70;;;3.88;;
32329;SDS011;18807;52.434;13.238;2022-12-07T11:33:11;5.30;;;3.25;;
32329;SDS011;18807;52.434;13.238;2022-12-07T11:40:55;4.90;;;3.08;;
32329;SDS011;18807;52.434;13.238;2022-12-07T11:48:46;5.60;;;3.70;;
32329;SDS011;18807;52.434;13.238;2022-12-07T11:56:26;4.57;;;2.60;;
32329;SDS011;18807;52.434;13.238;2022-12-07T12:04:03;4.30;;;3.45;;
32329;SDS011;18807;52.434;13.238;2022-12-07T12:20:00;3.30;;;2.35;;
32329;SDS011;18807;52.434;13.238;2022-12-07T12:27:39;4.50;;;2.35;;
32329;SDS011;18807;52.434;13.238;2022-12-07T12:35:21;8.23;;;2.45;;
32329;SDS011;18807;52.434;13.238;2022-12-07T12:43:14;4.55;;;2.03;;
32329;SDS011;18807;52.434;13.238;2022-12-07T12:59:25;5.55;;;2.33;;
32329;SDS011;18807;52.434;13.238;2022-12-07T13:07:02;7.25;;;2.30;;
32329;SDS011;18807;52.434;13.238;2022-12-07T13:22:39;3.80;;;1.80;;
32329;SDS011;18807;52.434;13.238;2022-12-07T13:30:19;3.22;;;1.35;;
32329;SDS011;18807;52.434;13.238;2022-12-07T13:37:55;3.58;;;1.52;;
32329;SDS011;18807;52.434;13.238;2022-12-07T13:45:31;3.25;;;1.60;;
32329;SDS011;18807;52.434;13.238;2022-12-07T13:53:22;3.50;;;1.52;;
32329;SDS011;18807;52.434;13.238;2022-12-07T14:01:01;5.95;;;1.90;;
32329;SDS011;18807;52.434;13.238;2022-12-07T14:08:36;2.83;;;1.55;;
32329;SDS011;18807;52.434;13.238;2022-12-07T14:16:20;6.47;;;3.08;;
32329;SDS011;18807;52.434;13.238;2022-12-07T14:24:11;3.95;;;1.70;;
32329;SDS011;18807;52.434;13.238;2022-12-07T14:31:51;4.82;;;2.00;;
32329;SDS011;18807;52.434;13.238;2022-12-07T14:39:28;3.42;;;1.77;;
32329;SDS011;18807;52.434;13.238;2022-12-07T14:47:05;4.47;;;1.98;;
32329;SDS011;18807;52.434;13.238;2022-12-07T14:55:01;6.65;;;1.75;;
32329;SDS011;18807;52.434;13.238;2022-12-07T15:02:37;3.88;;;1.33;;
32329;SDS011;18807;52.434;13.238;2022-12-07T15:10:13;2.88;;;1.73;;
32329;SDS011;18807;52.434;13.238;2022-12-07T15:17:56;2.67;;;2.20;;
32329;SDS011;18807;52.434;13.238;2022-12-07T15:25:30;6.00;;;1.85;;
32329;SDS011;18807;52.434;13.238;2022-12-07T15:33:06;4.07;;;2.00;;
32329;SDS011;18807;52.434;13.238;2022-12-07T15:40:40;3.33;;;2.35;;
32329;SDS011;18807;52.434;13.238;2022-12-07T15:48:15;4.78;;;1.92;;
32329;SDS011;18807;52.434;13.238;2022-12-07T15:55:59;4.60;;;2.47;;
32329;SDS011;18807;52.434;13.238;2022-12-07T16:03:35;6.50;;;2.20;;
32329;SDS011;18807;52.434;13.238;2022-12-07T16:11:09;6.00;;;2.05;;
32329;SDS011;18807;52.434;13.238;2022-12-07T16:18:45;6.60;;;2.25;;
32329;SDS011;18807;52.434;13.238;2022-12-07T16:26:21;3.85;;;1.63;;
32329;SDS011;18807;52.434;13.238;2022-12-07T16:33:57;3.65;;;2.03;;
32329;SDS011;18807;52.434;13.238;2022-12-07T16:41:32;7.70;;;2.00;;
32329;SDS011;18807;52.434;13.238;2022-12-07T16:49:10;5.15;;;1.80;;
32329;SDS011;18807;52.434;13.238;2022-12-07T16:56:47;5.53;;;2.30;;
32329;SDS011;18807;52.434;13.238;2022-12-07T17:04:23;8.25;;;1.77;;
32329;SDS011;18807;52.434;13.238;2022-12-07T17:11:58;5.80;;;2.40;;
32329;SDS011;18807;52.434;13.238;2022-12-07T17:19:35;6.53;;;2.40;;
32329;SDS011;18807;52.434;13.238;2022-12-07T17:27:09;5.63;;;2.53;;
32329;SDS011;18807;52.434;13.238;2022-12-07T17:34:45;4.83;;;1.87;;
32329;SDS011;18807;52.434;13.238;2022-12-07T17:42:19;5.15;;;1.95;;
32329;SDS011;18807;52.434;13.238;2022-12-07T17:50:13;5.78;;;2.13;;
32329;SDS011;18807;52.434;13.238;2022-12-07T17:57:47;3.78;;;1.90;;
32329;SDS011;18807;52.434;13.238;2022-12-07T18:05:22;4.23;;;2.33;;
32329;SDS011;18807;52.434;13.238;2022-12-07T18:12:56;4.47;;;2.40;;
32329;SDS011;18807;52.434;13.238;2022-12-07T18:20:45;5.18;;;2.83;;
32329;SDS011;18807;52.434;13.238;2022-12-07T18:28:19;7.57;;;2.55;;
32329;SDS011;18807;52.434;13.238;2022-12-07T18:35:54;6.50;;;2.97;;
32329;SDS011;18807;52.434;13.238;2022-12-07T18:43:31;5.93;;;3.20;;
32329;SDS011;18807;52.434;13.238;2022-12-07T18:51:10;7.10;;;3.85;;
32329;SDS011;18807;52.434;13.238;2022-12-07T18:58:48;10.05;;;4.05;;
32329;SDS011;18807;52.434;13.238;2022-12-07T19:06:41;6.90;;;3.15;;
32329;SDS011;18807;52.434;13.238;2022-12-07T19:14:17;5.68;;;2.67;;
32329;SDS011;18807;52.434;13.238;2022-12-07T19:21:54;7.20;;;2.97;;
32329;SDS011;18807;52.434;13.238;2022-12-07T19:29:28;7.35;;;3.90;;
32329;SDS011;18807;52.434;13.238;2022-12-07T19:37:05;8.45;;;2.92;;
32329;SDS011;18807;52.434;13.238;2022-12-07T19:44:39;7.97;;;2.80;;
32329;SDS011;18807;52.434;13.238;2022-12-07T19:59:49;6.47;;;3.55;;
32329;SDS011;18807;52.434;13.238;2022-12-07T20:07:24;6.32;;;3.25;;
32329;SDS011;18807;52.434;13.238;2022-12-07T20:14:58;5.70;;;3.75;;
32329;SDS011;18807;52.434;13.238;2022-12-07T20:22:34;6.05;;;3.28;;
32329;SDS011;18807;52.434;13.238;2022-12-07T20:30:09;5.05;;;2.78;;
32329;SDS011;18807;52.434;13.238;2022-12-07T20:37:44;8.68;;;2.80;;
32329;SDS011;18807;52.434;13.238;2022-12-07T20:45:19;8.73;;;4.30;;
32329;SDS011;18807;52.434;13.238;2022-12-07T20:52:54;7.60;;;4.78;;
32329;SDS011;18807;52.434;13.238;2022-12-07T21:00:31;8.52;;;4.47;;
32329;SDS011;18807;52.434;13.238;2022-12-07T21:08:09;5.93;;;3.55;;
32329;SDS011;18807;52.434;13.238;2022-12-07T21:15:43;10.95;;;3.83;;
32329;SDS011;18807;52.434;13.238;2022-12-07T21:23:18;7.68;;;3.97;;
32329;SDS011;18807;52.434;13.238;2022-12-07T21:30:55;3.97;;;3.00;;
32329;SDS011;18807;52.434;13.238;2022-12-07T21:38:46;8.00;;;3.25;;
32329;SDS011;18807;52.434;13.238;2022-12-07T21:46:21;6.15;;;3.08;;
32329;SDS011;18807;52.434;13.238;2022-12-07T21:54:05;4.82;;;2.70;;
32329;SDS011;18807;52.434;13.238;2022-12-07T22:01:40;7.38;;;3.40;;
32329;SDS011;18807;52.434;13.238;2022-12-07T22:09:20;5.93;;;3.22;;
32329;SDS011;18807;52.434;13.238;2022-12-07T22:16:54;4.93;;;2.95;;
32329;SDS011;18807;52.434;13.238;2022-12-07T22:24:31;9.20;;;4.13;;
32329;SDS011;18807;52.434;13.238;2022-12-07T22:32:05;6.30;;;3.40;;
32329;SDS011;18807;52.434;13.238;2022-12-07T22:40:01;4.77;;;2.60;;
32329;SDS011;18807;52.434;13.238;2022-12-07T22:47:36;6.53;;;2.95;;
32329;SDS011;18807;52.434;13.238;2022-12-07T22:55:13;8.15;;;3.60;;
32329;SDS011;18807;52.434;13.238;2022-12-07T23:02:47;6.10;;;3.03;;
32329;SDS011;18807;52.434;13.238;2022-12-07T23:10:22;9.05;;;3.53;;
32329;SDS011;18807;52.434;13.238;2022-12-07T23:17:56;8.23;;;3.30;;
32329;SDS011;18807;52.434;13.238;2022-12-07T23:33:06;8.68;;;3.97;;
32329;SDS011;18807;52.434;13.238;2022-12-07T23:40:41;9.77;;;5.40;;
32329;SDS011;18807;52.434;13.238;2022-12-07T23:48:15;7.63;;;4.50;;
32329;SDS011;18807;52.434;13.238;2022-12-07T23:55:51;12.48;;;4.20;;
